createdAt,value
2023-04-03T00:01:29.126Z,102800.75
2023-04-03T00:03:57.645Z,102800.13
2023-04-03T00:06:27.185Z,102806.75
2023-04-03T00:08:55.539Z,102822.22
2023-04-03T00:11:24.567Z,102819.06
2023-04-03T00:13:53.025Z,102818.00
2023-04-03T00:16:21.752Z,102820.78
2023-04-03T00:18:50.207Z,102823.25
2023-04-03T00:21:18.674Z,102815.97
2023-04-03T00:23:47.069Z,102818.31
2023-04-03T00:26:15.664Z,102820.03
2023-04-03T00:28:44.147Z,102831.81
2023-04-03T00:31:16.021Z,102826.16
2023-04-03T00:33:44.498Z,102827.69
2023-04-03T00:36:13.468Z,102832.34
2023-04-03T00:38:42.097Z,102823.91
2023-04-03T00:41:10.730Z,102817.41
2023-04-03T00:43:39.296Z,102807.94
2023-04-03T00:46:07.770Z,102817.81
2023-04-03T00:48:41.695Z,102830.31
2023-04-03T00:51:14.388Z,102823.91
2023-04-03T00:53:48.318Z,102819.53
2023-04-03T00:56:20.368Z,102813.75
2023-04-03T00:59:00.335Z,102811.78
2023-04-03T01:01:29.991Z,102823.13
2023-04-03T01:04:06.522Z,102828.44
2023-04-03T01:06:37.876Z,102826.59
2023-04-03T01:09:06.913Z,102832.72
2023-04-03T01:11:35.474Z,102825.31
2023-04-03T01:14:03.964Z,102829.59
2023-04-03T01:16:33.607Z,102823.53
2023-04-03T01:19:04.241Z,102827.78
2023-04-03T01:21:47.811Z,102835.22
2023-04-03T01:24:31.268Z,102843.03
2023-04-03T01:27:01.294Z,102839.16
2023-04-03T01:29:29.736Z,102834.25
2023-04-03T01:32:01.023Z,102838.44
2023-04-03T01:34:30.690Z,102835.75
2023-04-03T01:36:59.313Z,102839.47
2023-04-03T01:39:27.766Z,102842.81
2023-04-03T01:41:56.228Z,102853.13
2023-04-03T01:44:24.663Z,102839.22
2023-04-03T01:46:53.118Z,102842.41
2023-04-03T01:49:21.564Z,102837.06
2023-04-03T01:51:50.051Z,102842.25
2023-04-03T01:54:18.438Z,102845.34
2023-04-03T01:56:46.837Z,102835.25
2023-04-03T01:59:17.924Z,102838.66
2023-04-03T02:01:46.793Z,102840.88
2023-04-03T02:04:15.408Z,102838.31
2023-04-03T02:06:43.921Z,102839.69
2023-04-03T02:09:12.398Z,102839.03
2023-04-03T02:11:40.805Z,102837.47
2023-04-03T02:14:09.343Z,102837.81
2023-04-03T02:16:37.910Z,102844.97
2023-04-03T02:19:06.288Z,102835.13
2023-04-03T02:21:34.639Z,102835.72
2023-04-03T02:24:03.287Z,102839.84
2023-04-03T02:26:31.940Z,102840.59
2023-04-03T02:29:00.501Z,102846.78
2023-04-03T02:31:29.057Z,102839.16
2023-04-03T02:33:57.560Z,102841.16
2023-04-03T02:36:26.041Z,102841.06
2023-04-03T02:38:54.518Z,102854.53
2023-04-03T02:41:23.016Z,102844.09
2023-04-03T02:43:51.420Z,102847.75
2023-04-03T02:46:19.855Z,102847.94
2023-04-03T02:48:48.395Z,102848.34
2023-04-03T02:51:17.060Z,102850.59
2023-04-03T02:53:45.511Z,102844.69
2023-04-03T02:56:13.944Z,102853.69
2023-04-03T02:58:42.455Z,102854.38
2023-04-03T03:01:11.860Z,102856.09
2023-04-03T03:03:40.339Z,102856.97
2023-04-03T03:06:11.950Z,102855.25
2023-04-03T03:08:41.499Z,102854.03
2023-04-03T03:11:11.050Z,102851.38
2023-04-03T03:13:39.628Z,102856.72
2023-04-03T03:16:08.973Z,102852.00
2023-04-03T03:18:37.450Z,102850.59
2023-04-03T03:21:06.071Z,102851.38
2023-04-03T03:23:34.494Z,102846.78
2023-04-03T03:26:08.776Z,102848.22
2023-04-03T03:28:39.075Z,102850.72
2023-04-03T03:31:08.449Z,102850.25
2023-04-03T03:33:37.363Z,102862.97
2023-04-03T03:36:06.442Z,102860.66
2023-04-03T03:38:34.886Z,102857.84
2023-04-03T03:41:03.392Z,102871.19
2023-04-03T03:43:31.851Z,102873.13
2023-04-03T03:46:00.385Z,102866.00
2023-04-03T03:48:28.812Z,102865.94
2023-04-03T03:50:57.279Z,102872.81
2023-04-03T03:53:25.714Z,102867.13
2023-04-03T03:55:54.154Z,102888.34
2023-04-03T03:58:22.785Z,102883.13
2023-04-03T04:00:51.560Z,102880.16
2023-04-03T04:03:20.180Z,102879.34
2023-04-03T04:05:48.685Z,102874.59
2023-04-03T04:08:17.211Z,102881.63
2023-04-03T04:10:45.639Z,102877.03
2023-04-03T04:13:14.064Z,102880.47
2023-04-03T04:15:43.387Z,102881.63
2023-04-03T04:18:11.942Z,102883.09
2023-04-03T04:20:40.384Z,102883.09
2023-04-03T04:23:08.828Z,102877.75
2023-04-03T04:25:37.494Z,102882.75
2023-04-03T04:28:06.033Z,102875.94
2023-04-03T04:30:34.810Z,102882.16
2023-04-03T04:33:03.828Z,102878.97
2023-04-03T04:35:32.593Z,102878.63
2023-04-03T04:38:01.578Z,102873.81
2023-04-03T04:40:30.320Z,102874.44
2023-04-03T04:42:58.776Z,102879.84
2023-04-03T04:45:27.244Z,102878.28
2023-04-03T04:47:58.735Z,102885.41
2023-04-03T04:50:27.323Z,102893.00
2023-04-03T04:52:55.718Z,102895.38
2023-04-03T04:55:24.159Z,102902.78
2023-04-03T04:57:52.595Z,102895.56
2023-04-03T05:00:21.343Z,102899.34
2023-04-03T05:02:49.919Z,102899.25
2023-04-03T05:05:18.587Z,102907.09
2023-04-03T05:07:47.078Z,102901.00
2023-04-03T05:10:15.787Z,102900.78
2023-04-03T05:12:44.178Z,102900.03
2023-04-03T05:15:12.801Z,102908.94
2023-04-03T05:17:41.267Z,102896.09
2023-04-03T05:20:10.449Z,102900.13
2023-04-03T05:22:39.456Z,102908.63
2023-04-03T05:25:08.402Z,102910.19
2023-04-03T05:27:37.094Z,102919.50
2023-04-03T05:30:06.484Z,102923.25
2023-04-03T05:32:35.130Z,102921.69
2023-04-03T05:35:04.351Z,102921.19
2023-04-03T05:37:32.795Z,102927.91
2023-04-03T05:40:01.590Z,102929.97
2023-04-03T05:42:30.568Z,102937.28
2023-04-03T05:44:59.107Z,102930.81
2023-04-03T05:47:27.568Z,102935.78
2023-04-03T05:49:56.076Z,102929.28
2023-04-03T05:52:28.958Z,102934.44
2023-04-03T05:54:57.777Z,102933.50
2023-04-03T05:57:26.192Z,102930.31
2023-04-03T05:59:54.974Z,102932.53
2023-04-03T06:02:24.985Z,102930.66
2023-04-03T06:04:53.875Z,102931.50
2023-04-03T06:07:24.755Z,102940.19
2023-04-03T06:09:53.866Z,102938.41
2023-04-03T06:12:23.288Z,102939.50
2023-04-03T06:14:52.102Z,102942.63
2023-04-03T06:17:21.210Z,102949.97
2023-04-03T06:19:49.746Z,102945.69
2023-04-03T06:22:18.444Z,102946.81
2023-04-03T06:24:47.549Z,102947.41
2023-04-03T06:27:16.559Z,102946.59
2023-04-03T06:29:46.409Z,102959.25
2023-04-03T06:32:14.936Z,102964.31
2023-04-03T06:34:43.426Z,102962.66
2023-04-03T06:37:21.009Z,102958.09
2023-04-03T06:39:49.904Z,102959.16
2023-04-03T06:42:18.684Z,102969.09
2023-04-03T06:44:47.412Z,102967.66
2023-04-03T06:47:17.154Z,102961.50
2023-04-03T06:49:45.891Z,102963.53
2023-04-03T06:52:14.480Z,102959.28
2023-04-03T06:54:43.057Z,102970.69
2023-04-03T06:57:11.567Z,102977.09
2023-04-03T06:59:41.149Z,102973.13
2023-04-03T07:02:12.591Z,102981.94
2023-04-03T07:04:41.450Z,102978.41
2023-04-03T07:07:10.260Z,102981.50
2023-04-03T07:09:38.765Z,102995.19
2023-04-03T07:12:07.272Z,102993.22
2023-04-03T07:14:36.038Z,103000.53
2023-04-03T07:17:04.514Z,102999.00
2023-04-03T07:19:32.941Z,102994.09
2023-04-03T07:22:01.347Z,102990.72
2023-04-03T07:24:29.872Z,102988.84
2023-04-03T07:26:58.365Z,103010.97
2023-04-03T07:29:26.793Z,103004.31
2023-04-03T07:31:56.884Z,103006.69
2023-04-03T07:34:25.406Z,102993.50
2023-04-03T07:36:53.901Z,102998.47
2023-04-03T07:39:22.342Z,103010.22
2023-04-03T07:41:50.842Z,103009.94
2023-04-03T07:44:19.284Z,103011.34
2023-04-03T07:46:48.002Z,103009.81
2023-04-03T07:49:17.592Z,103017.22
2023-04-03T07:51:46.557Z,103016.91
2023-04-03T07:54:15.401Z,103016.16
2023-04-03T07:56:44.890Z,103007.53
2023-04-03T07:59:13.425Z,103022.50
2023-04-03T08:01:43.378Z,103027.69
2023-04-03T08:04:12.107Z,103026.97
2023-04-03T08:06:46.284Z,103026.25
2023-04-03T08:09:16.785Z,103024.78
2023-04-03T08:11:46.243Z,103030.88
2023-04-03T08:14:18.012Z,103023.22
2023-04-03T08:16:48.249Z,103026.19
2023-04-03T08:19:25.630Z,103022.88
2023-04-03T08:21:57.676Z,103034.03
2023-04-03T08:24:26.296Z,103031.88
2023-04-03T08:26:54.948Z,103026.66
2023-04-03T08:29:23.700Z,103027.34
2023-04-03T08:31:52.551Z,103024.34
2023-04-03T08:34:21.174Z,103037.44
2023-04-03T08:36:49.686Z,103029.50
2023-04-03T08:39:18.120Z,103036.19
2023-04-03T08:41:48.688Z,103047.75
2023-04-03T08:44:55.913Z,103049.50
2023-04-03T08:47:30.553Z,103047.59
2023-04-03T08:50:02.650Z,103048.53
2023-04-03T08:52:40.560Z,103062.50
2023-04-03T08:55:21.841Z,103057.84
2023-04-03T08:57:59.637Z,103057.53
2023-04-03T09:00:50.713Z,103073.63
2023-04-03T09:03:21.751Z,103063.13
2023-04-03T09:05:50.295Z,103060.06
2023-04-03T09:08:31.272Z,103068.75
2023-04-03T09:11:22.938Z,103069.53
2023-04-03T09:14:14.850Z,103077.22
2023-04-03T09:16:59.020Z,103070.56
2023-04-03T09:19:46.858Z,103072.16
2023-04-03T09:22:26.318Z,103082.50
2023-04-03T09:25:14.215Z,103095.38
2023-04-03T09:27:43.008Z,103077.94
2023-04-03T09:30:21.340Z,103086.59
2023-04-03T09:32:52.561Z,103104.34
2023-04-03T09:35:36.164Z,103093.38
2023-04-03T09:38:12.954Z,103076.56
2023-04-03T09:40:43.612Z,103093.03
2023-04-03T09:43:17.925Z,103089.47
2023-04-03T09:45:47.652Z,103099.59
2023-04-03T09:48:17.058Z,103091.94
2023-04-03T09:50:51.445Z,103081.09
2023-04-03T09:53:38.887Z,103088.09
2023-04-03T09:56:16.469Z,103087.69
2023-04-03T09:58:51.067Z,103074.69
2023-04-03T10:01:27.667Z,103077.25
2023-04-03T10:04:16.609Z,103060.19
2023-04-03T10:06:51.704Z,103071.78
2023-04-03T10:09:25.035Z,103051.56
2023-04-03T10:12:12.996Z,103069.09
2023-04-03T10:15:02.157Z,103068.34
2023-04-03T10:17:36.748Z,103063.19
2023-04-03T10:20:37.427Z,103068.09
2023-04-03T10:23:47.812Z,103079.94
2023-04-03T10:26:46.159Z,103067.72
2023-04-03T10:29:31.308Z,103062.44
2023-04-03T10:32:13.819Z,103056.91
2023-04-03T10:34:51.662Z,103064.19
2023-04-03T10:37:37.643Z,103058.84
2023-04-03T10:40:43.734Z,103050.88
2023-04-03T10:43:48.769Z,103042.25
2023-04-03T10:46:27.249Z,103045.94
2023-04-03T10:49:57.133Z,103030.91
2023-04-03T10:52:39.997Z,103038.69
2023-04-03T10:55:48.506Z,103046.63
2023-04-03T10:58:40.290Z,103036.91
2023-04-03T11:01:17.605Z,103031.50
2023-04-03T11:03:55.726Z,103025.44
2023-04-03T11:06:29.075Z,103030.38
2023-04-03T11:09:14.589Z,103024.09
2023-04-03T11:11:44.336Z,103028.84
2023-04-03T11:14:24.566Z,103030.75
2023-04-03T11:17:05.433Z,103028.78
2023-04-03T11:19:55.737Z,103033.81
2023-04-03T11:22:35.822Z,103019.72
2023-04-03T11:25:20.973Z,103011.81
2023-04-03T11:27:58.979Z,103010.47
2023-04-03T11:30:52.399Z,103007.66
2023-04-03T11:33:56.771Z,103011.97
2023-04-03T11:36:50.534Z,103006.72
2023-04-03T11:39:28.354Z,103006.34
2023-04-03T11:42:13.785Z,103012.78
2023-04-03T11:44:42.494Z,102994.34
2023-04-03T11:47:13.154Z,103007.84
2023-04-03T11:50:02.301Z,102995.88
2023-04-03T11:52:43.186Z,103026.81
2023-04-03T11:55:24.683Z,103000.47
2023-04-03T11:57:59.114Z,102983.88
2023-04-03T12:00:50.544Z,103005.03
2023-04-03T12:03:25.707Z,102983.75
2023-04-03T12:06:15.865Z,102976.56
2023-04-03T12:08:44.181Z,102968.31
2023-04-03T12:11:17.449Z,102983.78
2023-04-03T12:13:54.999Z,102979.84
2023-04-03T12:16:29.468Z,102969.47
2023-04-03T12:19:04.345Z,102982.88
2023-04-03T12:21:44.767Z,102967.38
2023-04-03T12:24:16.121Z,102985.56
2023-04-03T12:26:52.276Z,102957.47
2023-04-03T12:29:34.221Z,102959.19
2023-04-03T12:32:18.235Z,102968.63
2023-04-03T12:34:58.655Z,102965.41
2023-04-03T12:37:48.837Z,102957.28
2023-04-03T12:40:20.499Z,102956.97
2023-04-03T12:43:15.818Z,102950.03
2023-04-03T12:45:50.914Z,102961.16
2023-04-03T12:48:27.096Z,102945.41
2023-04-03T12:50:57.275Z,102938.91
2023-04-03T12:53:35.090Z,102945.41
2023-04-03T12:56:25.999Z,102929.38
2023-04-03T12:59:14.283Z,102933.63
2023-04-03T13:01:43.147Z,102919.66
2023-04-03T13:04:13.579Z,102925.13
2023-04-03T13:06:44.415Z,102919.03
2023-04-03T13:09:22.254Z,102937.78
2023-04-03T13:11:55.557Z,102925.06
2023-04-03T13:14:30.711Z,102915.47
2023-04-03T13:17:20.728Z,102902.84
2023-04-03T13:19:49.368Z,102909.56
2023-04-03T13:22:40.063Z,102909.38
2023-04-03T13:25:11.756Z,102909.44
2023-04-03T13:27:43.337Z,102910.38
2023-04-03T13:30:33.575Z,102908.09
2023-04-03T13:33:06.135Z,102909.53
2023-04-03T13:35:41.530Z,102894.69
2023-04-03T13:38:18.912Z,102898.19
2023-04-03T13:41:01.587Z,102897.06
2023-04-03T13:43:33.270Z,102897.38
2023-04-03T13:46:11.145Z,102898.25
2023-04-03T13:48:45.433Z,102891.56
2023-04-03T13:51:13.953Z,102897.94
2023-04-03T13:53:46.954Z,102890.56
2023-04-03T13:56:34.215Z,102880.97
2023-04-03T13:59:29.095Z,102888.00
2023-04-03T14:02:03.425Z,102882.28
2023-04-03T14:04:57.149Z,102890.31
2023-04-03T14:07:26.767Z,102882.28
2023-04-03T14:09:55.499Z,102871.91
2023-04-03T14:12:32.504Z,102874.13
2023-04-03T14:15:03.771Z,102885.81
2023-04-03T14:17:32.483Z,102876.28
2023-04-03T14:20:01.953Z,102883.00
2023-04-03T14:22:33.408Z,102880.75
2023-04-03T14:25:02.187Z,102892.41
2023-04-03T14:27:43.152Z,102858.47
2023-04-03T14:30:22.646Z,102869.44
2023-04-03T14:32:51.458Z,102864.22
2023-04-03T14:35:21.072Z,102870.41
2023-04-03T14:37:51.692Z,102873.13
2023-04-03T14:40:25.394Z,102867.63
2023-04-03T14:42:56.317Z,102884.91
2023-04-03T14:45:25.069Z,102864.41
2023-04-03T14:47:55.498Z,102868.34
2023-04-03T14:50:27.292Z,102860.97
2023-04-03T14:52:59.519Z,102857.16
2023-04-03T14:55:28.620Z,102860.31
2023-04-03T14:57:57.127Z,102849.56
2023-04-03T15:00:25.821Z,102857.25
2023-04-03T15:02:54.518Z,102843.31
2023-04-03T15:05:23.241Z,102841.78
2023-04-03T15:07:55.486Z,102835.69
2023-04-03T15:10:32.815Z,102839.66
2023-04-03T15:13:01.571Z,102832.34
2023-04-03T15:15:31.218Z,102832.78
2023-04-03T15:18:00.230Z,102834.47
2023-04-03T15:20:31.644Z,102832.31
2023-04-03T15:23:05.922Z,102832.31
2023-04-03T15:25:34.330Z,102836.84
2023-04-03T15:28:03.110Z,102826.97
2023-04-03T15:30:31.888Z,102830.22
2023-04-03T15:33:00.372Z,102838.56
2023-04-03T15:35:29.168Z,102830.50
2023-04-03T15:37:57.622Z,102823.44
2023-04-03T15:40:26.700Z,102828.53
2023-04-03T15:42:55.549Z,102828.97
2023-04-03T15:45:24.270Z,102816.50
2023-04-03T15:47:52.865Z,102821.41
2023-04-03T15:50:23.790Z,102820.50
2023-04-03T15:52:55.385Z,102821.88
2023-04-03T15:55:25.593Z,102827.19
2023-04-03T15:57:54.631Z,102828.97
2023-04-03T16:00:24.177Z,102826.34
2023-04-03T16:02:59.859Z,102821.72
2023-04-03T16:05:28.571Z,102835.09
2023-04-03T16:07:58.860Z,102836.31
2023-04-03T16:10:28.668Z,102827.03
2023-04-03T16:12:57.177Z,102833.91
2023-04-03T16:15:26.729Z,102818.66
2023-04-03T16:17:55.628Z,102818.19
2023-04-03T16:20:24.057Z,102832.47
2023-04-03T16:22:52.904Z,102827.47
2023-04-03T16:25:21.543Z,102826.69
2023-04-03T16:27:49.935Z,102823.00
2023-04-03T16:30:18.546Z,102838.56
2023-04-03T16:32:47.528Z,102837.78
2023-04-03T16:35:16.334Z,102836.78
2023-04-03T16:37:44.760Z,102831.22
2023-04-03T16:40:13.467Z,102838.88
2023-04-03T16:42:42.256Z,102829.72
2023-04-03T16:45:11.757Z,102830.91
2023-04-03T16:47:40.470Z,102839.59
2023-04-03T16:50:09.954Z,102835.69
2023-04-03T16:52:38.588Z,102839.81
2023-04-03T16:55:07.797Z,102833.69
2023-04-03T16:57:36.380Z,102842.34
2023-04-03T17:00:06.625Z,102840.38
2023-04-03T17:02:35.445Z,102844.69
2023-04-03T17:05:04.153Z,102841.06
2023-04-03T17:07:33.061Z,102835.59
2023-04-03T17:10:01.766Z,102840.00
2023-04-03T17:12:30.588Z,102830.34
2023-04-03T17:14:59.079Z,102834.00
2023-04-03T17:17:27.573Z,102842.75
2023-04-03T17:19:56.578Z,102845.38
2023-04-03T17:22:25.503Z,102848.66
2023-04-03T17:24:53.974Z,102839.13
2023-04-03T17:27:22.413Z,102850.69
2023-04-03T17:29:50.963Z,102851.00
2023-04-03T17:32:19.686Z,102858.63
2023-04-03T17:34:48.430Z,102844.38
2023-04-03T17:37:17.105Z,102841.94
2023-04-03T17:39:47.021Z,102846.00
2023-04-03T17:42:16.129Z,102838.06
2023-04-03T17:44:44.639Z,102843.41
2023-04-03T17:47:13.172Z,102849.41
2023-04-03T17:49:41.808Z,102849.47
2023-04-03T17:52:10.258Z,102840.31
2023-04-03T17:54:38.785Z,102853.25
2023-04-03T17:57:08.854Z,102861.88
2023-04-03T17:59:38.527Z,102850.50
2023-04-03T18:02:06.975Z,102853.38
2023-04-03T18:04:35.548Z,102845.34
2023-04-03T18:07:07.637Z,102852.38
2023-04-03T18:09:36.978Z,102842.03
2023-04-03T18:12:07.607Z,102847.28
2023-04-03T18:14:38.117Z,102839.53
2023-04-03T18:17:06.682Z,102836.53
2023-04-03T18:19:35.525Z,102845.31
2023-04-03T18:22:08.382Z,102846.59
2023-04-03T18:24:37.196Z,102844.13
2023-04-03T18:27:11.384Z,102846.44
2023-04-03T18:29:42.106Z,102846.22
2023-04-03T18:32:14.495Z,102832.66
2023-04-03T18:34:43.215Z,102837.41
2023-04-03T18:37:11.692Z,102846.34
2023-04-03T18:39:40.105Z,102851.00
2023-04-03T18:42:13.678Z,102848.28
2023-04-03T18:44:44.422Z,102851.34
2023-04-03T18:47:13.192Z,102851.31
2023-04-03T18:49:43.076Z,102842.28
2023-04-03T18:52:12.286Z,102858.19
2023-04-03T18:54:42.671Z,102845.19
2023-04-03T18:57:11.141Z,102862.28
2023-04-03T18:59:39.525Z,102853.91
2023-04-03T19:02:08.608Z,102848.28
2023-04-03T19:04:37.274Z,102864.84
2023-04-03T19:07:06.546Z,102862.56
2023-04-03T19:09:35.373Z,102866.38
2023-04-03T19:12:04.204Z,102856.84
2023-04-03T19:14:32.786Z,102864.56
2023-04-03T19:17:02.442Z,102859.41
2023-04-03T19:19:31.073Z,102856.91
2023-04-03T19:21:59.526Z,102866.50
2023-04-03T19:24:27.913Z,102870.19
2023-04-03T19:26:56.346Z,102868.47
2023-04-03T19:29:24.759Z,102869.72
2023-04-03T19:31:53.193Z,102869.38
2023-04-03T19:34:21.982Z,102865.13
2023-04-03T19:36:52.182Z,102861.16
2023-04-03T19:39:20.815Z,102869.56
2023-04-03T19:41:49.545Z,102868.78
2023-04-03T19:44:18.219Z,102867.44
2023-04-03T19:46:51.229Z,102859.94
2023-04-03T19:49:20.419Z,102859.97
2023-04-03T19:51:48.888Z,102867.13
2023-04-03T19:54:17.731Z,102858.59
2023-04-03T19:56:46.455Z,102863.03
2023-04-03T19:59:16.436Z,102857.66
2023-04-03T20:01:46.402Z,102856.94
2023-04-03T20:04:15.070Z,102855.94
2023-04-03T20:06:43.548Z,102859.06
2023-04-03T20:09:12.180Z,102863.44
2023-04-03T20:11:40.734Z,102867.75
2023-04-03T20:14:09.165Z,102869.69
2023-04-03T20:16:38.057Z,102863.22
2023-04-03T20:19:07.132Z,102858.59
2023-04-03T20:21:35.769Z,102866.22
2023-04-03T20:24:07.276Z,102864.38
2023-04-03T20:26:43.866Z,102870.94
2023-04-03T20:29:14.360Z,102868.06
2023-04-03T20:31:42.904Z,102861.63
2023-04-03T20:34:11.753Z,102864.94
2023-04-03T20:36:40.228Z,102861.38
2023-04-03T20:39:09.075Z,102857.16
2023-04-03T20:41:39.397Z,102857.53
2023-04-03T20:44:07.869Z,102865.28
2023-04-03T20:46:51.432Z,102858.59
2023-04-03T20:49:22.737Z,102865.00
2023-04-03T20:51:52.506Z,102859.00
2023-04-03T20:54:21.713Z,102852.25
2023-04-03T20:56:50.468Z,102854.97
2023-04-03T20:59:19.365Z,102864.41
2023-04-03T21:01:48.895Z,102860.47
2023-04-03T21:04:26.623Z,102861.81
2023-04-03T21:07:32.732Z,102865.50
2023-04-03T21:10:39.384Z,102863.88
2023-04-03T21:13:46.476Z,102867.66
2023-04-03T21:16:14.893Z,102873.53
2023-04-03T21:18:59.728Z,102874.91
2023-04-03T21:21:28.592Z,102880.66
2023-04-03T21:23:57.186Z,102880.88
2023-04-03T21:26:27.130Z,102880.03
2023-04-03T21:28:55.995Z,102877.81
2023-04-03T21:31:25.013Z,102887.72
2023-04-03T21:33:53.668Z,102884.31
2023-04-03T21:36:22.134Z,102883.31
2023-04-03T21:38:51.431Z,102880.63
2023-04-03T21:41:19.866Z,102884.25
2023-04-03T21:43:48.328Z,102876.81
2023-04-03T21:46:17.084Z,102888.66
2023-04-03T21:48:47.098Z,102875.75
2023-04-03T21:51:17.107Z,102879.09
2023-04-03T21:53:45.906Z,102876.66
2023-04-03T21:56:14.311Z,102870.56
2023-04-03T21:58:42.774Z,102864.25
2023-04-03T22:01:16.105Z,102858.88
2023-04-03T22:03:46.490Z,102855.59
2023-04-03T22:06:16.944Z,102856.53
2023-04-03T22:08:45.491Z,102841.00
2023-04-03T22:11:15.625Z,102840.59
2023-04-03T22:13:45.319Z,102845.84
2023-04-03T22:16:13.860Z,102842.00
2023-04-03T22:18:42.361Z,102847.34
2023-04-03T22:21:11.033Z,102853.44
2023-04-03T22:23:39.609Z,102846.34
2023-04-03T22:26:10.697Z,102852.56
2023-04-03T22:28:47.017Z,102856.69
2023-04-03T22:31:17.048Z,102856.34
2023-04-03T22:33:45.873Z,102855.28
2023-04-03T22:36:14.558Z,102851.47
2023-04-03T22:38:47.241Z,102854.91
2023-04-03T22:41:15.632Z,102855.88
2023-04-03T22:43:44.064Z,102850.16
2023-04-03T22:46:13.726Z,102847.34
2023-04-03T22:48:43.265Z,102845.84
2023-04-03T22:51:12.538Z,102849.28
2023-04-03T22:53:41.318Z,102848.22
2023-04-03T22:56:11.228Z,102838.00
2023-04-03T22:58:40.140Z,102847.19
2023-04-03T23:01:13.564Z,102835.84
2023-04-03T23:03:42.559Z,102836.69
2023-04-03T23:06:12.739Z,102835.84
2023-04-03T23:08:42.455Z,102833.72
2023-04-03T23:11:10.964Z,102834.09
2023-04-03T23:13:39.504Z,102830.44
2023-04-03T23:16:08.770Z,102829.81
2023-04-03T23:18:39.781Z,102824.78
2023-04-03T23:21:09.357Z,102824.09
2023-04-03T23:23:38.017Z,102825.75
2023-04-03T23:26:06.577Z,102826.69
2023-04-03T23:28:35.471Z,102827.34
2023-04-03T23:31:07.032Z,102826.75
2023-04-03T23:33:43.758Z,102819.38
2023-04-03T23:36:13.440Z,102821.88
2023-04-03T23:38:42.956Z,102824.75
2023-04-03T23:41:11.388Z,102813.94
2023-04-03T23:43:41.523Z,102822.50
2023-04-03T23:46:10.054Z,102819.03
2023-04-03T23:48:38.504Z,102820.72
2023-04-03T23:51:07.018Z,102817.09
2023-04-03T23:53:35.423Z,102810.63
2023-04-03T23:56:09.598Z,102812.44
2023-04-03T23:58:38.438Z,102814.47
